createdAt,value
2018-03-26T00:00:14.114Z,8.32
2018-03-26T00:01:14.350Z,8.25
2018-03-26T00:02:14.362Z,8.33
2018-03-26T00:03:14.357Z,8.3
2018-03-26T00:04:14.398Z,8.21
2018-03-26T00:05:13.825Z,8.33
2018-03-26T00:06:14.058Z,8.28
2018-03-26T00:07:13.989Z,8.18
2018-03-26T00:08:14.230Z,8.2
2018-03-26T00:09:14.217Z,8.35
2018-03-26T00:10:13.729Z,8.29
2018-03-26T00:11:14.192Z,8.26
2018-03-26T00:12:14.138Z,8.2
2018-03-26T00:13:13.891Z,8.22
2018-03-26T00:14:13.858Z,8.18
2018-03-26T00:15:13.685Z,8.22
2018-03-26T00:16:13.886Z,8.21
2018-03-26T00:17:14.216Z,8.21
2018-03-26T00:18:13.806Z,8.2
2018-03-26T00:19:14.155Z,8.2
2018-03-26T00:20:14.068Z,8.25
2018-03-26T00:21:13.735Z,8.22
2018-03-26T00:22:14.022Z,8.2
2018-03-26T00:23:13.961Z,8.29
2018-03-26T00:24:13.688Z,8.2
2018-03-26T00:25:13.935Z,8.26
2018-03-26T00:26:13.673Z,8.15
2018-03-26T00:27:14.049Z,8.17
2018-03-26T00:28:13.367Z,8.25
2018-03-26T00:29:13.883Z,8.18
2018-03-26T00:30:13.849Z,8.15
2018-03-26T00:31:13.830Z,8.17
2018-03-26T00:32:13.564Z,8.14
2018-03-26T00:33:13.522Z,8.18
2018-03-26T00:34:13.496Z,8.15
2018-03-26T00:35:13.490Z,8.14
2018-03-26T00:36:13.223Z,8.17
2018-03-26T00:37:13.564Z,8.11
2018-03-26T00:38:13.436Z,8.18
2018-03-26T00:39:13.444Z,8.12
2018-03-26T00:40:13.130Z,8.11
2018-03-26T00:41:13.407Z,8.1
2018-03-26T00:42:13.441Z,8.11
2018-03-26T00:43:13.678Z,8.07
2018-03-26T00:44:13.644Z,8.1
2018-03-26T00:45:13.038Z,8.04
2018-03-26T00:46:13.612Z,8.02
2018-03-26T00:47:13.277Z,8.04
2018-03-26T00:48:13.249Z,8.03
2018-03-26T00:49:13.304Z,8.04
2018-03-26T00:50:13.210Z,8.02
2018-03-26T00:51:13.459Z,8.03
2018-03-26T00:52:13.181Z,8
2018-03-26T00:53:13.434Z,8.04
2018-03-26T00:54:13.136Z,7.99
2018-03-26T00:55:12.857Z,8.02
2018-03-26T00:56:13.543Z,7.99
2018-03-26T00:57:12.818Z,7.97
2018-03-26T00:58:12.801Z,8.03
2018-03-26T00:59:13.095Z,7.97
2018-03-26T01:00:13.089Z,7.93
2018-03-26T01:01:13.036Z,7.96
2018-03-26T01:02:13.326Z,7.94
2018-03-26T01:03:12.992Z,7.93
2018-03-26T01:04:12.981Z,7.92
2018-03-26T01:05:12.679Z,7.93
2018-03-26T01:06:13.260Z,7.92
2018-03-26T01:07:12.738Z,7.82
2018-03-26T01:08:12.921Z,7.85
2018-03-26T01:09:13.207Z,7.89
2018-03-26T01:10:12.668Z,7.89
2018-03-26T01:11:13.164Z,7.87
2018-03-26T01:12:13.109Z,7.92
2018-03-26T01:13:13.104Z,7.89
2018-03-26T01:14:13.043Z,7.89
2018-03-26T01:15:13.136Z,7.87
2018-03-26T01:16:12.820Z,7.84
2018-03-26T01:17:12.734Z,7.89
2018-03-26T01:18:13.019Z,7.82
2018-03-26T01:19:12.966Z,7.81
2018-03-26T01:20:12.744Z,7.9
2018-03-26T01:21:12.669Z,7.81
2018-03-26T01:22:12.664Z,7.77
2018-03-26T01:23:12.968Z,7.79
2018-03-26T01:24:12.610Z,7.82
2018-03-26T01:25:12.883Z,7.81
2018-03-26T01:26:12.329Z,7.79
2018-03-26T01:27:12.533Z,7.81
2018-03-26T01:28:12.783Z,7.77
2018-03-26T01:29:12.236Z,7.75
2018-03-26T01:30:12.224Z,7.78
2018-03-26T01:31:12.198Z,7.77
2018-03-26T01:32:12.448Z,7.79
2018-03-26T01:33:12.159Z,7.69
2018-03-26T01:34:12.408Z,7.67
2018-03-26T01:35:12.397Z,7.63
2018-03-26T01:36:12.635Z,7.66
2018-03-26T01:37:12.709Z,7.67
2018-03-26T01:38:12.103Z,7.71
2018-03-26T01:39:12.318Z,7.67
2018-03-26T01:40:12.565Z,7.67
2018-03-26T01:41:12.276Z,7.67
2018-03-26T01:42:11.998Z,7.71
2018-03-26T01:43:12.280Z,7.67
2018-03-26T01:44:12.289Z,7.67
2018-03-26T01:45:12.478Z,7.67
2018-03-26T01:46:12.193Z,7.69
2018-03-26T01:47:12.169Z,7.62
2018-03-26T01:48:12.459Z,7.62
2018-03-26T01:49:12.421Z,7.55
2018-03-26T01:50:12.446Z,7.67
2018-03-26T01:51:12.123Z,7.66
2018-03-26T01:52:12.140Z,7.58
2018-03-26T01:53:12.367Z,7.59
2018-03-26T01:54:11.804Z,7.63
2018-03-26T01:55:12.029Z,7.59
2018-03-26T01:56:12.011Z,7.63
2018-03-26T01:57:12.033Z,7.55
2018-03-26T01:58:11.709Z,7.56
2018-03-26T01:59:11.946Z,7.55
2018-03-26T02:00:11.974Z,7.55
2018-03-26T02:01:11.953Z,7.55
2018-03-26T02:02:11.891Z,7.58
2018-03-26T02:03:12.176Z,7.52
2018-03-26T02:04:11.851Z,7.58
2018-03-26T02:05:11.862Z,7.56
2018-03-26T02:06:11.814Z,7.49
2018-03-26T02:07:11.800Z,7.56
2018-03-26T02:08:12.074Z,7.52
2018-03-26T02:09:11.767Z,7.47
2018-03-26T02:10:12.007Z,7.47
2018-03-26T02:11:11.734Z,7.45
2018-03-26T02:12:11.455Z,7.47
2018-03-26T02:13:11.947Z,7.52
2018-03-26T02:14:11.399Z,7.45
2018-03-26T02:15:11.909Z,7.47
2018-03-26T02:16:11.900Z,7.47
2018-03-26T02:17:11.611Z,7.4
2018-03-26T02:18:11.594Z,7.38
2018-03-26T02:19:11.587Z,7.52
2018-03-26T02:20:11.284Z,7.52
2018-03-26T02:21:11.797Z,7.45
2018-03-26T02:22:11.789Z,7.44
2018-03-26T02:23:11.768Z,7.42
2018-03-26T02:24:11.758Z,7.34
2018-03-26T02:25:11.196Z,7.29
2018-03-26T02:26:11.446Z,7.27
2018-03-26T02:27:11.428Z,7.31
2018-03-26T02:28:11.141Z,7.26
2018-03-26T02:29:11.652Z,7.34
2018-03-26T02:30:11.377Z,7.34
2018-03-26T02:31:11.085Z,7.32
2018-03-26T02:32:11.063Z,7.37
2018-03-26T02:33:11.311Z,7.23
2018-03-26T02:34:11.303Z,7.31
2018-03-26T02:35:11.558Z,7.2
2018-03-26T02:36:11.251Z,7.16
2018-03-26T02:37:11.505Z,7.24
2018-03-26T02:38:11.223Z,7.23
2018-03-26T02:39:11.473Z,7.26
2018-03-26T02:40:11.456Z,7.27
2018-03-26T02:41:11.174Z,7.19
2018-03-26T02:42:11.139Z,7.27
2018-03-26T02:43:11.389Z,7.2
2018-03-26T02:44:11.215Z,7.19
2018-03-26T02:45:11.360Z,7.26
2018-03-26T02:46:11.136Z,7.2
2018-03-26T02:47:10.865Z,7.15
2018-03-26T02:48:11.040Z,7.16
2018-03-26T02:49:11.284Z,7.12
2018-03-26T02:50:10.994Z,7.16
2018-03-26T02:51:11.256Z,7.13
2018-03-26T02:52:11.249Z,7.13
2018-03-26T02:53:10.971Z,7.15
2018-03-26T02:54:10.926Z,7.12
2018-03-26T02:55:10.642Z,7.09
2018-03-26T02:56:11.151Z,7.15
2018-03-26T02:57:10.609Z,7.04
2018-03-26T02:58:10.883Z,7.09
2018-03-26T02:59:10.940Z,7.08
2018-03-26T03:00:10.836Z,7.08
2018-03-26T03:01:10.798Z,7.02
2018-03-26T03:02:11.035Z,6.97
2018-03-26T03:03:10.558Z,7.07
2018-03-26T03:04:10.468Z,7.09
2018-03-26T03:05:10.447Z,7.07
2018-03-26T03:06:10.709Z,7.07
2018-03-26T03:07:10.960Z,6.98
2018-03-26T03:08:10.656Z,7.02
2018-03-26T03:09:10.896Z,7.05
2018-03-26T03:10:10.884Z,7.05
2018-03-26T03:11:10.668Z,6.99
2018-03-26T03:12:10.855Z,6.94
2018-03-26T03:13:10.574Z,6.95
2018-03-26T03:14:10.272Z,7.01
2018-03-26T03:15:10.794Z,7.01
2018-03-26T03:16:10.244Z,6.98
2018-03-26T03:17:10.749Z,6.99
2018-03-26T03:18:10.740Z,6.98
2018-03-26T03:19:10.722Z,6.97
2018-03-26T03:20:10.427Z,6.95
2018-03-26T03:21:10.146Z,6.98
2018-03-26T03:22:10.125Z,6.91
2018-03-26T03:23:10.648Z,7.04
2018-03-26T03:24:10.089Z,6.95
2018-03-26T03:25:10.076Z,6.99
2018-03-26T03:26:10.596Z,6.99
2018-03-26T03:27:10.152Z,6.89
2018-03-26T03:28:10.365Z,6.94
2018-03-26T03:29:10.014Z,6.97
2018-03-26T03:30:10.577Z,6.97
2018-03-26T03:31:10.221Z,6.91
2018-03-26T03:32:10.323Z,6.87
2018-03-26T03:33:10.183Z,6.91
2018-03-26T03:34:09.898Z,6.94
2018-03-26T03:35:10.006Z,6.81
2018-03-26T03:36:10.140Z,6.87
2018-03-26T03:37:10.152Z,6.8
2018-03-26T03:38:09.823Z,6.87
2018-03-26T03:39:10.119Z,6.87
2018-03-26T03:40:10.324Z,6.83
2018-03-26T03:41:10.438Z,6.79
2018-03-26T03:42:10.012Z,6.76
2018-03-26T03:43:10.127Z,6.83
2018-03-26T03:44:10.327Z,6.84
2018-03-26T03:45:10.298Z,6.73
2018-03-26T03:46:09.667Z,6.8
2018-03-26T03:47:09.914Z,6.83
2018-03-26T03:48:09.685Z,6.77
2018-03-26T03:49:10.011Z,6.77
2018-03-26T03:50:09.942Z,6.79
2018-03-26T03:51:10.042Z,6.77
2018-03-26T03:52:09.819Z,6.71
2018-03-26T03:53:09.804Z,6.81
2018-03-26T03:54:10.042Z,6.66
2018-03-26T03:55:09.809Z,6.72
2018-03-26T03:56:09.751Z,6.72
2018-03-26T03:57:10.092Z,6.79
2018-03-26T03:58:09.977Z,6.73
2018-03-26T03:59:09.985Z,6.72
2018-03-26T04:00:09.838Z,6.71
2018-03-26T04:01:09.958Z,6.73
2018-03-26T04:02:10.156Z,6.73
2018-03-26T04:03:09.910Z,6.73
2018-03-26T04:04:09.856Z,6.73
2018-03-26T04:05:09.576Z,6.76
2018-03-26T04:06:09.997Z,6.71
2018-03-26T04:07:09.939Z,6.63
2018-03-26T04:08:09.285Z,6.69
2018-03-26T04:09:09.514Z,6.63
2018-03-26T04:10:09.523Z,6.62
2018-03-26T04:11:09.191Z,6.68
2018-03-26T04:12:09.444Z,6.65
2018-03-26T04:13:09.206Z,6.58
2018-03-26T04:14:09.511Z,6.65
2018-03-26T04:15:09.524Z,6.54
2018-03-26T04:16:09.097Z,6.61
2018-03-26T04:17:09.464Z,6.51
2018-03-26T04:18:09.050Z,6.4
2018-03-26T04:19:09.304Z,6.4
2018-03-26T04:20:09.281Z,6.29
2018-03-26T04:21:09.342Z,6.3
2018-03-26T04:22:09.545Z,6.32
2018-03-26T04:23:09.331Z,6.19
2018-03-26T04:24:08.974Z,6.21
2018-03-26T04:25:09.214Z,6.18
2018-03-26T04:26:09.251Z,6.14
2018-03-26T04:27:09.143Z,6.1
2018-03-26T04:28:09.128Z,6.06
2018-03-26T04:29:08.873Z,6.09
2018-03-26T04:30:08.819Z,5.98
2018-03-26T04:31:09.102Z,5.92
2018-03-26T04:32:09.205Z,5.98
2018-03-26T04:33:09.301Z,5.98
2018-03-26T04:34:09.279Z,5.86
2018-03-26T04:35:09.265Z,5.89
2018-03-26T04:36:09.245Z,5.85
2018-03-26T04:37:08.717Z,5.78
2018-03-26T04:38:08.958Z,5.75
2018-03-26T04:39:09.214Z,5.75
2018-03-26T04:40:08.924Z,5.73
2018-03-26T04:41:08.633Z,5.63
2018-03-26T04:42:08.856Z,5.74
2018-03-26T04:43:08.833Z,5.77
2018-03-26T04:44:08.807Z,5.71
2018-03-26T04:45:08.797Z,5.81
2018-03-26T04:46:08.513Z,5.75
2018-03-26T04:47:08.762Z,5.67
2018-03-26T04:48:08.734Z,5.77
2018-03-26T04:49:09.044Z,5.7
2018-03-26T04:50:08.692Z,5.68
2018-03-26T04:51:08.673Z,5.6
2018-03-26T04:52:08.650Z,5.68
2018-03-26T04:53:08.777Z,5.71
2018-03-26T04:54:08.876Z,5.74
2018-03-26T04:55:08.801Z,5.7
2018-03-26T04:56:08.996Z,5.77
2018-03-26T04:57:08.550Z,5.73
2018-03-26T04:58:09.105Z,5.66
2018-03-26T04:59:08.997Z,5.73
2018-03-26T05:00:08.338Z,5.74
2018-03-26T05:01:08.211Z,5.78
2018-03-26T05:02:08.724Z,5.82
2018-03-26T05:03:08.749Z,5.83
2018-03-26T05:04:08.702Z,5.88
2018-03-26T05:05:08.496Z,5.86
2018-03-26T05:06:08.650Z,5.89
2018-03-26T05:07:08.649Z,5.89
2018-03-26T05:08:08.643Z,5.93
2018-03-26T05:09:08.054Z,5.85
2018-03-26T05:10:08.568Z,5.91
2018-03-26T05:11:08.290Z,5.95
2018-03-26T05:12:08.564Z,5.95
2018-03-26T05:13:08.245Z,5.96
2018-03-26T05:14:08.484Z,6.07
2018-03-26T05:15:08.200Z,6
2018-03-26T05:16:08.182Z,6.06
2018-03-26T05:17:08.174Z,6.03
2018-03-26T05:18:08.265Z,6.11
2018-03-26T05:19:08.123Z,6.07
2018-03-26T05:20:08.100Z,6.1
2018-03-26T05:21:08.077Z,6.09
2018-03-26T05:22:07.794Z,6.14
2018-03-26T05:23:08.034Z,6.16
2018-03-26T05:24:08.293Z,6.14
2018-03-26T05:25:08.002Z,6.1
2018-03-26T05:26:08.257Z,6.09
2018-03-26T05:27:08.229Z,6.16
2018-03-26T05:28:08.212Z,6.1
2018-03-26T05:29:07.657Z,6.16
2018-03-26T05:30:07.906Z,6.21
2018-03-26T05:31:07.966Z,6.28
2018-03-26T05:32:08.195Z,6.22
2018-03-26T05:33:08.112Z,6.29
2018-03-26T05:34:08.101Z,6.29
2018-03-26T05:35:07.806Z,6.25
2018-03-26T05:36:07.550Z,6.3
2018-03-26T05:37:07.776Z,6.29
2018-03-26T05:38:08.048Z,6.28
2018-03-26T05:39:07.468Z,6.26
2018-03-26T05:40:07.973Z,6.28
2018-03-26T05:41:07.423Z,6.33
2018-03-26T05:42:07.692Z,6.35
2018-03-26T05:43:07.714Z,6.35
2018-03-26T05:44:07.662Z,6.32
2018-03-26T05:45:07.872Z,6.29
2018-03-26T05:46:07.723Z,6.3
2018-03-26T05:47:07.305Z,6.36
2018-03-26T05:48:07.290Z,6.28
2018-03-26T05:49:07.267Z,6.29
2018-03-26T05:50:07.521Z,6.46
2018-03-26T05:51:07.495Z,6.38
2018-03-26T05:52:07.476Z,6.4
2018-03-26T05:53:07.454Z,6.4
2018-03-26T05:54:07.449Z,6.4
2018-03-26T05:55:07.422Z,6.35
2018-03-26T05:56:07.700Z,6.43
2018-03-26T05:57:07.716Z,6.43
2018-03-26T05:58:07.651Z,6.41
2018-03-26T05:59:07.077Z,6.33
2018-03-26T06:00:07.318Z,6.35
2018-03-26T06:01:07.300Z,6.5
2018-03-26T06:02:07.598Z,6.35
2018-03-26T06:03:07.578Z,6.47
2018-03-26T06:04:07.283Z,6.5
2018-03-26T06:05:07.046Z,6.46
2018-03-26T06:06:07.269Z,6.48
2018-03-26T06:07:07.330Z,6.47
2018-03-26T06:08:07.490Z,6.46
2018-03-26T06:09:07.149Z,6.46
2018-03-26T06:10:07.190Z,6.46
2018-03-26T06:11:07.108Z,6.47
2018-03-26T06:12:06.827Z,6.59
2018-03-26T06:13:07.148Z,6.54
2018-03-26T06:14:06.791Z,6.56
2018-03-26T06:15:07.024Z,6.58
2018-03-26T06:16:06.748Z,6.54
2018-03-26T06:17:07.087Z,6.51
2018-03-26T06:18:06.712Z,6.61
2018-03-26T06:19:06.995Z,6.62
2018-03-26T06:20:06.662Z,6.62
2018-03-26T06:21:07.203Z,6.61
2018-03-26T06:22:06.984Z,6.65
2018-03-26T06:23:07.422Z,6.61
2018-03-26T06:24:06.870Z,6.58
2018-03-26T06:25:06.834Z,6.66
2018-03-26T06:26:07.101Z,6.62
2018-03-26T06:27:06.796Z,6.63
2018-03-26T06:28:07.051Z,6.65
2018-03-26T06:29:06.763Z,6.66
2018-03-26T06:30:07.006Z,6.59
2018-03-26T06:31:06.726Z,6.63
2018-03-26T06:32:06.435Z,6.62
2018-03-26T06:33:06.949Z,6.63
2018-03-26T06:34:06.400Z,6.56
2018-03-26T06:35:06.643Z,6.66
2018-03-26T06:36:06.899Z,6.61
2018-03-26T06:37:06.872Z,6.63
2018-03-26T06:38:07.016Z,6.66
2018-03-26T06:39:06.592Z,6.69
2018-03-26T06:40:06.836Z,6.62
2018-03-26T06:41:06.797Z,6.76
2018-03-26T06:42:06.244Z,6.71
2018-03-26T06:43:06.492Z,6.79
2018-03-26T06:44:06.524Z,6.8
2018-03-26T06:45:06.822Z,6.73
2018-03-26T06:46:06.765Z,6.73
2018-03-26T06:47:06.708Z,6.76
2018-03-26T06:48:06.402Z,6.77
2018-03-26T06:49:06.377Z,6.71
2018-03-26T06:50:06.174Z,6.76
2018-03-26T06:51:06.599Z,6.8
2018-03-26T06:52:06.418Z,6.8
2018-03-26T06:53:06.332Z,6.81
2018-03-26T06:54:06.607Z,6.8
2018-03-26T06:55:06.301Z,6.73
2018-03-26T06:56:06.282Z,6.83
2018-03-26T06:57:05.953Z,6.89
2018-03-26T06:58:06.473Z,6.91
2018-03-26T06:59:06.190Z,6.9
2018-03-26T07:00:06.249Z,6.89
2018-03-26T07:01:06.146Z,6.8
2018-03-26T07:02:06.389Z,7.02
2018-03-26T07:03:06.379Z,6.98
2018-03-26T07:04:06.089Z,7.02
2018-03-26T07:05:06.078Z,6.99
2018-03-26T07:06:06.052Z,7.04
2018-03-26T07:07:05.761Z,7.09
2018-03-26T07:08:05.745Z,7.13
2018-03-26T07:09:06.265Z,7.24
2018-03-26T07:10:05.981Z,7.17
2018-03-26T07:11:05.952Z,7.17
2018-03-26T07:12:05.946Z,7.17
2018-03-26T07:13:05.655Z,7.27
2018-03-26T07:14:06.370Z,7.27
2018-03-26T07:15:05.886Z,7.29
2018-03-26T07:16:05.865Z,7.32
2018-03-26T07:17:06.125Z,7.31
2018-03-26T07:18:05.964Z,7.37
2018-03-26T07:19:06.154Z,7.41
2018-03-26T07:20:05.783Z,7.37
2018-03-26T07:21:05.503Z,7.42
2018-03-26T07:22:05.750Z,7.34
2018-03-26T07:23:06.068Z,7.47
2018-03-26T07:24:05.720Z,7.42
2018-03-26T07:25:05.962Z,7.42
2018-03-26T07:26:05.490Z,7.35
2018-03-26T07:27:05.660Z,7.47
2018-03-26T07:28:05.953Z,7.52
2018-03-26T07:29:05.883Z,7.62
2018-03-26T07:30:05.607Z,7.6
2018-03-26T07:31:05.849Z,7.66
2018-03-26T07:32:05.836Z,7.63
2018-03-26T07:33:05.826Z,7.71
2018-03-26T07:34:05.266Z,7.72
2018-03-26T07:35:05.249Z,7.79
2018-03-26T07:36:05.513Z,7.72
2018-03-26T07:37:05.737Z,7.78
2018-03-26T07:38:05.195Z,7.79
2018-03-26T07:39:05.446Z,7.81
2018-03-26T07:40:05.786Z,7.89
2018-03-26T07:41:05.456Z,7.85
2018-03-26T07:42:05.513Z,7.9
2018-03-26T07:43:05.691Z,7.96
2018-03-26T07:44:05.623Z,7.96
2018-03-26T07:45:05.335Z,8.03
2018-03-26T07:46:05.051Z,8.1
2018-03-26T07:47:05.311Z,8.03
2018-03-26T07:48:05.550Z,8.14
2018-03-26T07:49:05.541Z,8.18
2018-03-26T07:50:05.118Z,8.22
2018-03-26T07:51:05.236Z,8.32
2018-03-26T07:52:05.334Z,8.35
2018-03-26T07:53:05.021Z,8.44
2018-03-26T07:54:05.497Z,8.54
2018-03-26T07:55:05.520Z,8.68
2018-03-26T07:56:05.417Z,8.62
2018-03-26T07:57:05.553Z,8.6
2018-03-26T07:58:05.126Z,8.63
2018-03-26T07:59:05.093Z,8.62
2018-03-26T08:00:05.096Z,8.65
2018-03-26T08:01:05.068Z,8.58
2018-03-26T08:02:05.581Z,8.68
2018-03-26T08:03:05.091Z,8.71
2018-03-26T08:04:05.309Z,8.75
2018-03-26T08:05:05.266Z,8.84
2018-03-26T08:06:05.640Z,8.79
2018-03-26T08:07:05.231Z,8.72
2018-03-26T08:08:04.995Z,8.81
2018-03-26T08:09:04.977Z,8.88
2018-03-26T08:10:05.120Z,8.84
2018-03-26T08:11:05.163Z,8.78
2018-03-26T08:12:04.878Z,8.86
2018-03-26T08:13:05.127Z,8.86
2018-03-26T08:14:05.118Z,8.87
2018-03-26T08:15:05.119Z,8.9
2018-03-26T08:16:04.815Z,8.93
2018-03-26T08:17:05.038Z,8.97
2018-03-26T08:18:04.656Z,8.88
2018-03-26T08:19:05.084Z,8.93
2018-03-26T08:20:04.758Z,8.94
2018-03-26T08:21:04.778Z,9.01
2018-03-26T08:22:04.475Z,9.89
2018-03-26T08:23:04.702Z,10.56
2018-03-26T08:24:04.992Z,11.35
2018-03-26T08:25:04.680Z,11.9
2018-03-26T08:26:05.049Z,12.34
2018-03-26T08:27:04.379Z,12.57
2018-03-26T08:28:04.360Z,12.84
2018-03-26T08:29:04.935Z,13.43
2018-03-26T08:30:04.861Z,13.69
2018-03-26T08:31:04.617Z,13.3
2018-03-26T08:32:04.578Z,13.62
2018-03-26T08:33:04.560Z,13.94
2018-03-26T08:34:04.549Z,14.49
2018-03-26T08:35:04.541Z,15.01
2018-03-26T08:36:04.545Z,15.38
2018-03-26T08:37:04.338Z,15.67
2018-03-26T08:38:04.507Z,16.23
2018-03-26T08:39:04.225Z,16.52
2018-03-26T08:40:04.483Z,16.55
2018-03-26T08:41:04.480Z,16.27
2018-03-26T08:42:04.795Z,16.15
2018-03-26T08:43:04.837Z,16.45
2018-03-26T08:44:04.453Z,16.34
2018-03-26T08:45:04.696Z,16
2018-03-26T08:46:04.694Z,15.85
2018-03-26T08:47:04.413Z,15.93
2018-03-26T08:48:04.140Z,15.82
2018-03-26T08:49:04.397Z,15.35
2018-03-26T08:50:04.204Z,15.13
2018-03-26T08:51:04.386Z,15.01
2018-03-26T08:52:04.387Z,14.56
2018-03-26T08:53:04.366Z,14.67
2018-03-26T08:54:04.363Z,14.54
2018-03-26T08:55:04.342Z,14.49
2018-03-26T08:56:04.334Z,14.37
2018-03-26T08:57:04.064Z,14.02
2018-03-26T08:58:04.313Z,13.61
2018-03-26T08:59:04.320Z,13.67
2018-03-26T09:00:04.310Z,13.95
2018-03-26T09:01:04.039Z,14.13
2018-03-26T09:02:04.552Z,14.35
2018-03-26T09:03:04.552Z,14.2
2018-03-26T09:04:04.017Z,13.99
2018-03-26T09:05:04.271Z,13.77
2018-03-26T09:06:04.269Z,13.44
2018-03-26T09:07:04.247Z,13.51
2018-03-26T09:08:04.247Z,13.47
2018-03-26T09:09:04.512Z,13.73
2018-03-26T09:10:04.234Z,13.73
2018-03-26T09:11:03.957Z,13.56
2018-03-26T09:12:04.293Z,13.61
2018-03-26T09:13:04.219Z,13.59
2018-03-26T09:14:04.474Z,13.8
2018-03-26T09:15:04.207Z,13.71
2018-03-26T09:16:04.190Z,14.17
2018-03-26T09:17:03.922Z,14.52
2018-03-26T09:18:04.472Z,14.69
2018-03-26T09:19:03.898Z,15.05
2018-03-26T09:20:03.895Z,15.13
2018-03-26T09:21:04.155Z,15.42
2018-03-26T09:22:04.485Z,15.51
2018-03-26T09:23:04.144Z,15.59
2018-03-26T09:24:04.140Z,15.67
2018-03-26T09:25:03.862Z,15.81
2018-03-26T09:26:04.179Z,15.39
2018-03-26T09:27:04.111Z,15.11
2018-03-26T09:28:04.099Z,15.27
2018-03-26T09:29:04.097Z,15.42
2018-03-26T09:30:04.553Z,15.23
2018-03-26T09:31:04.370Z,15.11
2018-03-26T09:32:04.065Z,15.03
2018-03-26T09:33:04.368Z,14.98
2018-03-26T09:34:04.329Z,14.87
2018-03-26T09:35:03.781Z,14.93
2018-03-26T09:36:04.420Z,14.99
2018-03-26T09:37:04.304Z,14.37
2018-03-26T09:38:03.823Z,14.27
2018-03-26T09:39:04.030Z,14.28
2018-03-26T09:40:04.017Z,14.21
2018-03-26T09:41:04.001Z,14.24
2018-03-26T09:42:04.002Z,14.17
2018-03-26T09:43:04.328Z,14.17
2018-03-26T09:44:03.977Z,14.31
2018-03-26T09:45:04.243Z,14.24
2018-03-26T09:46:04.227Z,14.17
2018-03-26T09:47:04.233Z,13.94
2018-03-26T09:48:03.949Z,13.83
2018-03-26T09:49:04.006Z,13.46
2018-03-26T09:50:03.925Z,13.47
2018-03-26T09:51:03.935Z,13.79
2018-03-26T09:52:04.181Z,14.31
2018-03-26T09:53:03.908Z,14.43
2018-03-26T09:54:03.894Z,14.47
2018-03-26T09:55:03.617Z,14.52
2018-03-26T09:56:03.886Z,14.88
2018-03-26T09:57:03.605Z,15.19
2018-03-26T09:58:04.132Z,15.28
2018-03-26T09:59:03.862Z,15.03
2018-03-26T10:00:03.844Z,15.12
2018-03-26T10:01:04.107Z,15.06
2018-03-26T10:02:04.043Z,14.8
2018-03-26T10:03:03.560Z,14.47
2018-03-26T10:04:04.081Z,14.47
2018-03-26T10:05:04.081Z,14.71
2018-03-26T10:06:03.795Z,15.02
2018-03-26T10:07:03.790Z,14.8
2018-03-26T10:08:03.786Z,14.74
2018-03-26T10:09:03.516Z,14.65
2018-03-26T10:10:03.774Z,15.08
2018-03-26T10:11:03.759Z,15.35
2018-03-26T10:12:03.748Z,15.36
2018-03-26T10:13:03.476Z,15.52
2018-03-26T10:14:03.936Z,15.56
2018-03-26T10:15:03.729Z,15.67
2018-03-26T10:16:03.722Z,15.89
2018-03-26T10:17:03.717Z,15.74
2018-03-26T10:18:03.443Z,15.31
2018-03-26T10:19:03.432Z,14.98
2018-03-26T10:20:03.445Z,15.2
2018-03-26T10:21:03.963Z,15.61
2018-03-26T10:22:03.710Z,16.12
2018-03-26T10:23:03.413Z,15.93
2018-03-26T10:24:03.998Z,15.82
2018-03-26T10:25:03.930Z,15.79
2018-03-26T10:26:03.654Z,15.61
2018-03-26T10:27:03.930Z,15.28
2018-03-26T10:28:03.928Z,15.27
2018-03-26T10:29:03.655Z,15.33
2018-03-26T10:30:03.366Z,15.43
2018-03-26T10:31:03.759Z,15.56
2018-03-26T10:32:03.635Z,15.59
2018-03-26T10:33:03.886Z,15.39
2018-03-26T10:34:03.622Z,15.48
2018-03-26T10:35:03.343Z,15.66
2018-03-26T10:36:03.597Z,15.85
2018-03-26T10:37:03.585Z,16.27
2018-03-26T10:38:03.324Z,16.16
2018-03-26T10:39:03.685Z,16.15
2018-03-26T10:40:03.590Z,16.04
2018-03-26T10:41:03.860Z,16.06
2018-03-26T10:42:03.299Z,16.31
2018-03-26T10:43:03.566Z,16.27
2018-03-26T10:44:03.843Z,16.53
2018-03-26T10:45:03.615Z,16.65
2018-03-26T10:46:03.543Z,16.63
2018-03-26T10:47:03.808Z,16.15
2018-03-26T10:48:03.967Z,15.99
2018-03-26T10:49:03.940Z,16.06
2018-03-26T10:50:03.530Z,16.41
2018-03-26T10:51:03.772Z,16.4
2018-03-26T10:52:03.510Z,16.16
2018-03-26T10:53:03.882Z,16.15
2018-03-26T10:54:03.539Z,16.18
2018-03-26T10:55:03.538Z,16.22
2018-03-26T10:56:03.764Z,16.07
2018-03-26T10:57:03.488Z,16.3
2018-03-26T10:58:03.542Z,16.42
2018-03-26T10:59:03.549Z,16.33
2018-03-26T11:00:03.475Z,16.59
2018-03-26T11:01:03.786Z,16.48
2018-03-26T11:02:03.474Z,16.26
2018-03-26T11:03:03.469Z,16.45
2018-03-26T11:04:03.233Z,16.31
2018-03-26T11:05:03.193Z,15.64
2018-03-26T11:06:03.190Z,15.33
2018-03-26T11:07:03.190Z,15.48
2018-03-26T11:08:03.452Z,15.28
2018-03-26T11:09:03.437Z,14.67
2018-03-26T11:10:03.544Z,14.68
2018-03-26T11:11:03.455Z,14.98
2018-03-26T11:12:03.704Z,15.38
2018-03-26T11:13:03.429Z,15.85
2018-03-26T11:14:03.427Z,15.89
2018-03-26T11:15:03.444Z,16.01
2018-03-26T11:16:03.413Z,16.27
2018-03-26T11:17:03.685Z,15.7
2018-03-26T11:18:03.684Z,15.94
2018-03-26T11:19:03.762Z,16.16
2018-03-26T11:20:03.400Z,16.37
2018-03-26T11:21:03.442Z,16.26
2018-03-26T11:22:03.674Z,15.94
2018-03-26T11:23:03.684Z,16.16
2018-03-26T11:24:03.420Z,16.65
2018-03-26T11:25:03.398Z,16.59
2018-03-26T11:26:03.507Z,16.59
2018-03-26T11:27:03.421Z,16.58
2018-03-26T11:28:03.434Z,16.75
2018-03-26T11:29:03.383Z,16.89
2018-03-26T11:30:03.674Z,17.08
2018-03-26T11:31:03.660Z,17.17
2018-03-26T11:32:03.250Z,16.74
2018-03-26T11:33:03.377Z,16.27
2018-03-26T11:34:03.653Z,16.07
2018-03-26T11:35:03.386Z,15.92
2018-03-26T11:36:03.484Z,15.94
2018-03-26T11:37:03.377Z,15.97
2018-03-26T11:38:03.643Z,16.12
2018-03-26T11:39:03.645Z,16.2
2018-03-26T11:40:03.639Z,16.3
2018-03-26T11:41:03.638Z,15.93
2018-03-26T11:42:03.935Z,15.74
2018-03-26T11:43:03.125Z,15.39
2018-03-26T11:44:03.366Z,15.26
2018-03-26T11:45:03.385Z,15.35
2018-03-26T11:46:03.355Z,15.24
2018-03-26T11:47:03.402Z,15.01
2018-03-26T11:48:03.359Z,14.72
2018-03-26T11:49:03.107Z,14.43
2018-03-26T11:50:03.608Z,14.28
2018-03-26T11:51:03.338Z,14.07
2018-03-26T11:52:03.069Z,14.24
2018-03-26T11:53:03.659Z,14.56
2018-03-26T11:54:03.057Z,14.75
2018-03-26T11:55:03.327Z,15.05
2018-03-26T11:56:03.318Z,14.9
2018-03-26T11:57:03.044Z,15.21
2018-03-26T11:58:03.306Z,15.26
2018-03-26T11:59:03.305Z,15.23
2018-03-26T12:00:03.319Z,15.45
2018-03-26T12:01:03.025Z,15.38
2018-03-26T12:02:03.535Z,15.39
2018-03-26T12:03:03.545Z,15.59
2018-03-26T12:04:03.280Z,15.66
2018-03-26T12:05:03.282Z,15.78
2018-03-26T12:06:03.009Z,16.06
2018-03-26T12:07:03.268Z,16.14
2018-03-26T12:08:03.528Z,16.03
2018-03-26T12:09:03.260Z,15.82
2018-03-26T12:10:03.309Z,15.63
2018-03-26T12:11:02.981Z,15.49
2018-03-26T12:12:03.246Z,15.43
2018-03-26T12:13:03.243Z,15.54
2018-03-26T12:14:03.240Z,15.72
2018-03-26T12:15:03.025Z,16.15
2018-03-26T12:16:03.499Z,16.14
2018-03-26T12:17:03.497Z,15.72
2018-03-26T12:18:03.233Z,15.86
2018-03-26T12:19:03.495Z,16.2
2018-03-26T12:20:03.483Z,16.16
2018-03-26T12:21:02.948Z,16.23
2018-03-26T12:22:03.473Z,16.59
2018-03-26T12:23:03.210Z,16.73
2018-03-26T12:24:03.478Z,16.6
2018-03-26T12:25:03.200Z,16.65
2018-03-26T12:26:03.196Z,16.96
2018-03-26T12:27:03.465Z,17.3
2018-03-26T12:28:03.467Z,17.59
2018-03-26T12:29:02.927Z,17.63
2018-03-26T12:30:02.925Z,17.29
2018-03-26T12:31:03.197Z,17.22
2018-03-26T12:32:03.451Z,17.18
2018-03-26T12:33:03.452Z,17.18
2018-03-26T12:34:03.184Z,16.85
2018-03-26T12:35:03.182Z,16.88
2018-03-26T12:36:03.182Z,16.83
2018-03-26T12:37:03.187Z,16.53
2018-03-26T12:38:03.181Z,16.45
2018-03-26T12:39:03.178Z,16.52
2018-03-26T12:40:03.494Z,16.78
2018-03-26T12:41:03.170Z,17.15
2018-03-26T12:42:03.166Z,17.3
2018-03-26T12:43:03.166Z,17.69
2018-03-26T12:44:03.173Z,17.4
2018-03-26T12:45:02.899Z,17.51
2018-03-26T12:46:02.894Z,17.17
2018-03-26T12:47:03.160Z,17.08
2018-03-26T12:48:03.154Z,17.18
2018-03-26T12:49:03.415Z,17.38
2018-03-26T12:50:03.148Z,17.44
2018-03-26T12:51:03.412Z,17.66
2018-03-26T12:52:03.412Z,17.88
2018-03-26T12:53:03.150Z,17.87
2018-03-26T12:54:03.140Z,17.84
2018-03-26T12:55:03.141Z,18.13
2018-03-26T12:56:03.189Z,18.17
2018-03-26T12:57:02.876Z,17.87
2018-03-26T12:58:03.403Z,17.74
2018-03-26T12:59:03.140Z,17.66
2018-03-26T13:00:03.232Z,18.27
2018-03-26T13:01:03.134Z,18.76
2018-03-26T13:02:03.133Z,18.99
2018-03-26T13:03:03.135Z,19.14
2018-03-26T13:04:03.134Z,18.33
2018-03-26T13:05:03.457Z,17.91
2018-03-26T13:06:03.137Z,17.67
2018-03-26T13:07:03.395Z,17.78
2018-03-26T13:08:03.396Z,18.06
2018-03-26T13:09:03.399Z,18.31
2018-03-26T13:10:03.133Z,18.62
2018-03-26T13:11:03.400Z,18.67